Latest Weather Observations for Holmes Reef

IDQ60801

Issued at 9:22 pm EST Thursday 24 September 2020 (issued every 10 minutes, with the page automatically refreshed every 10 minutes)

About weather observations | Map of weather stations | Latest weather observations for QLD | Other Formats
Station Details ID: 200732 Name: HOLMES REEF Lat: -16.47 Lon: 147.87 Height: 1.9 m
Data from the previous 72 hours. | See also: Recent months at Holmes Reef
Date/Time
EST
Temp
°C
App
Temp
°C
Dew
Point
°C
Rel
Hum
%
Delta-T
°C
Wind Press
QNH
hPa
Press
MSL
hPa
Rain since
9am
mm
Dir  Spd
km/h
Gust
km/h
Spd
kts
Gust
kts
24/09:00pm 24.6 - - - - SE 24 28 13 15 1014.2 1014.1 -
24/08:30pm 24.6 - - - - ESE 24 28 13 15 1014.0 1013.9 -
24/08:00pm 24.6 - - - - SE 22 26 12 14 1013.7 1013.6 -
24/07:30pm 24.5 - - - - SE 20 24 11 13 1013.5 1013.4 -
24/07:00pm 24.6 - - - - ESE 19 22 10 12 1013.4 1013.3 -
24/06:30pm 24.7 - - - - SE 20 24 11 13 1013.0 1012.9 -
24/06:00pm 24.6 - - - - SE 19 22 10 12 1012.8 1012.7 -
24/05:30pm 24.7 - - - - SE 20 22 11 12 1012.8 1012.7 -
24/05:00pm 25.0 - - - - SSE 20 24 11 13 1012.7 1012.6 -
24/04:30pm 25.0 - - - - SSE 19 20 10 11 1012.4 1012.3 -
24/04:00pm 25.2 - - - - SSE 19 22 10 12 1012.2 1012.1 -
24/03:30pm 25.1 - - - - SE 19 22 10 12 1012.2 1012.1 -
24/03:00pm 24.8 - - - - SE 17 20 9 11 1012.1 1012.0 -
24/02:30pm 24.8 - - - - ESE 17 20 9 11 1012.3 1012.2 -
24/02:00pm 24.6 - - - - ESE 17 19 9 10 1012.6 1012.5 -
24/01:30pm 24.8 - - - - ESE 17 19 9 10 1012.8 1012.7 -
24/01:00pm 24.7 - - - - ESE 17 19 9 10 1012.9 1012.8 -
24/12:30pm 24.6 - - - - ESE 15 19 8 10 1013.4 1013.3 -
24/12:00pm 24.7 - - - - E 15 19 8 10 1013.8 1013.7 -
24/11:30am 24.8 - - - - E 19 22 10 12 1014.0 1013.9 -
24/11:00am 24.6 - - - - E 20 24 11 13 1014.3 1014.2 -
24/10:30am 24.6 - - - - ESE 20 24 11 13 1014.5 1014.4 -
24/10:00am 24.5 - - - - ESE 20 24 11 13 1014.8 1014.7 -
24/09:30am 24.6 - - - - SE 22 26 12 14 1014.8 1014.7 -
24/09:00am 24.4 - - - - ESE 24 26 13 14 1014.5 1014.4 -
24/08:30am 24.3 - - - - ESE 26 30 14 16 1014.4 1014.3 -
24/08:00am 24.2 - - - - ESE 26 30 14 16 1014.0 1013.9 -
24/07:30am 24.3 - - - - ESE 24 28 13 15 1013.8 1013.7 -
24/07:00am 24.2 - - - - SE 24 30 13 16 1013.7 1013.6 -
24/06:30am 24.1 - - - - SE 24 28 13 15 1013.4 1013.3 -
24/06:00am 24.1 - - - - SE 26 30 14 16 1013.3 1013.2 -
24/05:30am 24.1 - - - - SE 24 30 13 16 1013.4 1013.3 -
24/05:00am 23.9 - - - - SE 26 30 14 16 1013.1 1013.0 -
24/04:30am 24.0 - - - - SE 28 32 15 17 1012.8 1012.7 -
24/04:00am 23.8 - - - - SSE 28 32 15 17 1012.7 1012.6 -
24/03:30am 23.9 - - - - SSE 28 32 15 17 1012.8 1012.7 -
24/03:00am 24.0 - - - - SSE 26 32 14 17 1012.9 1012.8 -
24/02:30am 23.9 - - - - SE 24 30 13 16 1013.0 1012.9 -
24/02:00am 24.0 - - - - SSE 24 28 13 15 1013.2 1013.1 -
24/01:30am 24.1 - - - - SE 26 30 14 16 1013.5 1013.4 -
24/01:00am 24.2 - - - - SE 28 32 15 17 1013.7 1013.6 -
24/12:30am 24.4 - - - - SE 28 32 15 17 1014.0 1013.9 -
24/12:00am 24.5 - - - - SE 28 32 15 17 1014.2 1014.1 -
 
Date/Time
EST
Temp
°C
App
Temp
°C
Dew
Point
°C
Rel
Hum
%
Delta-T
°C
Wind Press
QNH
hPa
Press
MSL
hPa
Rain since
9am
mm
Dir  Spd
km/h
Gust
km/h
Spd
kts
Gust
kts
23/11:30pm 24.4 - - - - ESE 28 32 15 17 1014.5 1014.4 -
23/11:00pm 24.5 - - - - SE 26 30 14 16 1014.8 1014.7 -
23/10:30pm 24.5 - - - - ESE 26 30 14 16 1015.0 1014.9 -
23/10:00pm 24.6 - - - - ESE 24 26 13 14 1014.9 1014.8 -
23/09:30pm 24.8 - - - - ESE 24 26 13 14 1015.2 1015.1 -
23/09:00pm 24.8 - - - - SE 24 26 13 14 1015.2 1015.1 -
23/08:30pm 24.8 - - - - SE 22 24 12 13 1015.1 1015.0 -
23/08:00pm 24.8 - - - - SE 20 24 11 13 1014.7 1014.6 -
23/07:30pm 24.9 - - - - SE 20 24 11 13 1014.4 1014.3 -
23/07:00pm 25.0 - - - - SE 22 26 12 14 1014.1 1014.0 -
23/06:30pm 25.0 - - - - SE 20 24 11 13 1013.8 1013.7 -
23/06:00pm 24.8 - - - - SE 20 26 11 14 1013.6 1013.5 -
23/05:30pm 25.0 - - - - SSE 20 24 11 13 1013.2 1013.1 -
23/05:00pm 25.0 - - - - SE 20 24 11 13 1013.0 1012.9 -
23/04:30pm 24.9 - - - - SE 20 24 11 13 1012.7 1012.6 -
23/04:00pm 25.3 - - - - SE 20 22 11 12 1012.5 1012.4 -
23/03:30pm 25.2 - - - - SE 20 24 11 13 1012.4 1012.3 -
23/03:00pm 25.2 - - - - SE 20 24 11 13 1012.7 1012.6 -
23/02:30pm 25.3 - - - - SE 17 20 9 11 1013.0 1012.9 -
23/02:00pm 25.0 - - - - SE 19 22 10 12 1013.3 1013.2 -
23/01:30pm 25.0 - - - - SE 20 22 11 12 1013.4 1013.3 -
23/01:00pm 25.2 - - - - SE 17 22 9 12 1013.8 1013.7 -
23/12:30pm 24.9 - - - - ESE 17 20 9 11 1014.1 1014.0 -
23/12:00pm 25.0 - - - - ESE 19 24 10 13 1014.5 1014.4 -
23/11:30am 24.9 - - - - ESE 19 20 10 11 1014.8 1014.7 -
23/11:00am 24.7 - - - - ESE 20 24 11 13 1015.3 1015.2 -
23/10:30am 24.9 - - - - ESE 20 24 11 13 1015.6 1015.5 -
23/10:00am 24.9 - - - - ESE 24 26 13 14 1015.5 1015.4 -
23/09:30am 24.7 - - - - ESE 24 26 13 14 1015.7 1015.6 -
23/09:00am 24.8 - - - - ESE 24 28 13 15 1015.7 1015.6 -
23/08:30am 24.7 - - - - ESE 24 32 13 17 1015.6 1015.5 -
23/08:00am 24.7 - - - - ESE 26 30 14 16 1015.3 1015.2 -
23/07:30am 24.8 - - - - ESE 28 32 15 17 1015.0 1014.9 -
23/07:00am 24.5 - - - - ESE 30 33 16 18 1014.4 1014.3 -
23/06:30am 24.5 - - - - ESE 28 30 15 16 1014.1 1014.0 -
23/06:00am 24.4 - - - - ESE 26 30 14 16 1013.9 1013.8 -
23/05:30am 24.4 - - - - ESE 26 28 14 15 1013.8 1013.7 -
23/05:00am 24.5 - - - - ESE 26 30 14 16 1013.7 1013.6 -
23/04:30am 24.6 - - - - ESE 24 28 13 15 1013.6 1013.5 -
23/04:00am 24.5 - - - - ESE 26 30 14 16 1013.5 1013.4 -
23/03:30am 24.5 - - - - ESE 28 32 15 17 1013.4 1013.3 -
23/03:00am 24.6 - - - - SE 26 30 14 16 1013.4 1013.3 -
23/02:30am 24.6 - - - - SE 26 30 14 16 1013.7 1013.6 -
23/02:00am 24.6 - - - - ESE 26 28 14 15 1013.9 1013.8 -
23/01:30am 24.6 - - - - ESE 24 28 13 15 1014.1 1014.0 -
23/01:00am 24.8 - - - - ESE 24 26 13 14 1014.4 1014.3 -
23/12:30am 24.6 - - - - ESE 24 28 13 15 1014.6 1014.5 -
23/12:00am 24.8 - - - - ESE 26 30 14 16 1014.9 1014.8 -
 
Date/Time
EST
Temp
°C
App
Temp
°C
Dew
Point
°C
Rel
Hum
%
Delta-T
°C
Wind Press
QNH
hPa
Press
MSL
hPa
Rain since
9am
mm
Dir  Spd
km/h
Gust
km/h
Spd
kts
Gust
kts
22/11:30pm 24.7 - - - - ESE 26 30 14 16 1015.3 1015.2 -
22/11:00pm 24.9 - - - - ESE 24 30 13 16 1015.6 1015.5 -
22/10:30pm 24.7 - - - - E 26 30 14 16 1015.7 1015.6 -
22/10:00pm 24.9 - - - - E 28 33 15 18 1015.8 1015.7 -
22/09:30pm 24.9 - - - - ESE 28 32 15 17 1015.9 1015.8 -
22/09:00pm 25.0 - - - - ESE 26 30 14 16 1015.9 1015.8 -
22/08:30pm 25.2 - - - - ESE 26 28 14 15 1015.9 1015.8 -
22/08:00pm 25.0 - - - - ESE 24 30 13 16 1015.7 1015.6 -
22/07:30pm 25.1 - - - - ESE 22 26 12 14 1015.6 1015.5 -
22/07:00pm 25.0 - - - - SE 26 28 14 15 1015.4 1015.3 -
22/06:30pm 25.1 - - - - ESE 28 30 15 16 1014.8 1014.7 -
22/06:00pm 25.2 - - - - ESE 28 32 15 17 1014.5 1014.4 -
22/05:30pm 25.2 - - - - ESE 26 30 14 16 1014.3 1014.2 -
22/05:00pm 25.1 - - - - ESE 26 30 14 16 1014.0 1013.9 -
22/04:30pm 25.1 - - - - SE 28 30 15 16 1013.8 1013.7 -
22/04:00pm 25.3 - - - - SE 26 30 14 16 1013.7 1013.6 -
22/03:30pm 25.1 - - - - SE 26 30 14 16 1013.6 1013.5 -
22/03:00pm 25.3 - - - - SE 24 28 13 15 1013.5 1013.4 -
22/02:30pm 25.3 - - - - SE 26 30 14 16 1013.6 1013.5 -
22/02:00pm 25.3 - - - - SE 28 32 15 17 1013.8 1013.7 -
22/01:30pm 25.2 - - - - ESE 26 30 14 16 1014.0 1013.9 -
22/01:00pm 25.2 - - - - ESE 26 30 14 16 1014.2 1014.1 -
22/12:30pm 25.2 - - - - ESE 26 30 14 16 1014.7 1014.6 -
22/12:00pm 25.2 - - - - ESE 28 32 15 17 1015.0 1014.9 -
22/11:30am 25.2 - - - - ESE 28 33 15 18 1015.5 1015.4 -
22/11:00am 25.2 - - - - SE 30 33 16 18 1015.8 1015.7 -
22/10:30am 25.3 - - - - ESE 30 33 16 18 1015.8 1015.7 -
22/10:00am 25.3 - - - - SE 30 33 16 18 1015.9 1015.8 -
22/09:30am 25.4 - - - - ESE 28 33 15 18 1016.1 1016.0 -
22/09:00am 25.4 - - - - SE 28 30 15 16 1016.2 1016.1 -
22/08:30am 25.3 - - - - ESE 26 30 14 16 1016.0 1015.9 -
22/08:00am 25.1 - - - - SE 30 35 16 19 1015.4 1015.3 -
22/07:30am 25.3 - - - - SE 28 32 15 17 1015.4 1015.3 -
22/07:00am 25.1 - - - - ESE 30 33 16 18 1014.8 1014.7 -
22/06:30am 25.1 - - - - ESE 28 32 15 17 1014.5 1014.4 -
22/06:00am 24.9 - - - - ESE 28 32 15 17 1014.3 1014.2 -
22/05:30am 25.0 - - - - SE 26 32 14 17 1013.8 1013.7 -
22/05:00am 24.9 - - - - ESE 28 32 15 17 1013.6 1013.5 -
22/04:30am 24.9 - - - - ESE 28 33 15 18 1013.2 1013.1 -
22/04:00am 25.0 - - - - ESE 28 30 15 16 1013.0 1012.9 -
22/03:30am 25.0 - - - - SE 26 32 14 17 1012.9 1012.8 -
22/03:00am 25.0 - - - - ESE 28 32 15 17 1013.0 1012.9 -
22/02:30am 24.9 - - - - ESE 28 32 15 17 1013.1 1013.0 -
22/02:00am 24.9 - - - - ESE 28 32 15 17 1013.2 1013.1 -
22/01:30am 24.8 - - - - ESE 28 32 15 17 1013.4 1013.3 -
22/01:00am 24.8 - - - - ESE 30 35 16 19 1013.4 1013.3 -
22/12:30am 25.0 - - - - ESE 30 33 16 18 1014.0 1013.9 -
22/12:00am 24.8 - - - - ESE 32 35 17 19 1014.1 1014.0 -
 
Date/Time
EST
Temp
°C
App
Temp
°C
Dew
Point
°C
Rel
Hum
%
Delta-T
°C
Wind Press
QNH
hPa
Press
MSL
hPa
Rain since
9am
mm
Dir  Spd
km/h
Gust
km/h
Spd
kts
Gust
kts
21/11:30pm 24.9 - - - - ESE 32 35 17 19 1014.3 1014.2 -
21/11:00pm 24.9 - - - - ESE 32 35 17 19 1014.6 1014.5 -
21/10:30pm 24.9 - - - - ESE 32 35 17 19 1014.6 1014.5 -
21/10:00pm 25.0 - - - - ESE 33 37 18 20 1014.5 1014.4 -
21/09:30pm 24.9 - - - - ESE 33 37 18 20 1014.5 1014.4 -

Other formats

Comma delimited format used in spreadsheet applications
http://www.bom.gov.au/fwo/IDQ60801/IDQ60801.94289.axf

JavaScript Object Notation format (JSON) in row-major order
http://www.bom.gov.au/fwo/IDQ60801/IDQ60801.94289.json

Data quality

Most of these data are generated automatically and are frequently updated. Quality checks on data are not normally performed. It is possible for incorrect values to appear. Refer to information at About Latest Weather Observations and please check the disclaimer before using these data.